KGAI Airport (Montgomery County Airpark) Information

FAA: GAI - ICAO: KGAI

KGAI Airport Location

State Maryland
County Montgomery
City Gaithersburg
KGAI Airport is 3 miles northeast of Gaithersburg, MD.
Latitude 39-10-06.0000N
Longitude 077-09-57.6000W
Elevation 538ft

KGAI Airport METARs

METAR KGAI 080456Z AUTO 00000KT 10SM CLR 00/M08 A3015 RMK AO2 SLP230 T00001078 400441017 FZRANO
Altimeter 30.15"
Temperature 0.0°C (32.0°F)
Wind 0° at 0KT
Clouds Skies are clear.
Visibility 10.0mi
Time observed: 2021-12-08T04:56:00Z

KGAI Airport Details

Status Operational
Activation August 1960
Ownership Public
Usage Public
Chart WASHINGTON
ATC on-site No
Beacon schedule sunset-sunrise
Beacon color clear green

KGAI Airport Contacts

Owner MONTGOMERY COUNTY REV AUTH
Owner address 101 MONROE ST 4TH FLOOR, SUITE 410, ROCKVILLE, MD 20850
Owner phone 301-762-9080
Manager SHARON MILLS AND MICHAEL MILLS
Manager address 711 RECKORD RD, FALLSTON, MD 21047
Manager phone 410-877-9889

KGAI Airport (Montgomery County Airpark) Radio Frequencies

KGAI (Airport) Radio Frequencies

UNICOM 123.075
Common traffic advisory frequency (CTAF) 123.075